Terminal Aerodrome Forecast
Issued by NWS

Home | Current Version | Previous Version | Text Only | Print | Product List | Glossary On
Versions: 1 2 3 4 5 6 7 8 9 10 11 12 13 14
111
FTUS44 KBMX 222340
TAFTOI
TAF
KTOI 222340Z 2300/2324 04003KT P6SM SCT060 BKN150
     FM231500 10010G17KT P6SM SCT025 BKN050=

USA.gov is the U.S. government's official web portal to all federal, state and local government web resources and services.